Time;durP1;ratioP1;P1;durP2;ratioP2;P2;SDS_P1;SDS_P2;PMS_P1;PMS_P2;Temp;Humidity;BMP_temperature;BMP_pressure;BME280_temperature;BME280_humidity;BME280_pressure;Samples;Min_cycle;Max_cycle;Signal;HPM_P1;HPM_P2
2022/08/19 00:02:28;;;;;;;16.10;14.60;;;17.70;99.90;;;;;;2615903;54;20389;-77
2022/08/19 00:08:16;;;;;;;16.00;14.40;;;17.50;99.90;;;;;;2615805;54;20665;-77
2022/08/19 00:14:20;;;;;;;16.63;15.17;;;17.50;99.90;;;;;;2615016;54;20187;-80
2022/08/19 00:17:29;;;;;;;16.27;14.87;;;17.70;99.90;;;;;;2615485;54;20405;-80
2022/08/19 00:23:15;;;;;;;16.20;14.90;;;17.50;99.90;;;;;;2614619;54;20483;-78
2022/08/19 00:29:06;;;;;;;18.43;14.30;;;17.40;99.90;;;;;;2614518;54;20153;-78
2022/08/19 00:34:53;;;;;;;15.60;14.30;;;17.10;99.90;;;;;;2615874;54;20417;-76
2022/08/19 00:40:46;;;;;;;16.93;15.40;;;17.10;99.90;;;;;;2615797;54;20680;-76
2022/08/19 00:46:37;;;;;;;18.70;17.10;;;17.10;99.90;;;;;;2615387;54;20502;-77
2022/08/19 00:52:36;;;;;;;18.10;16.00;;;17.00;99.90;;;;;;2618779;54;20396;-81
2022/08/19 00:58:29;;;;;;;17.20;15.77;;;16.90;99.90;;;;;;2618264;54;20473;-81
2022/08/19 01:04:17;;;;;;;18.43;16.83;;;16.90;99.90;;;;;;2616636;54;20930;-76
2022/08/19 01:10:08;;;;;;;19.30;17.23;;;16.80;99.90;;;;;;2616582;54;20126;-76
2022/08/19 01:16:03;;;;;;;18.43;16.50;;;16.90;99.90;;;;;;2616176;54;20390;-77
2022/08/19 01:21:57;;;;;;;20.03;18.20;;;16.80;99.90;;;;;;2616605;54;20494;-77
2022/08/19 01:27:48;;;;;;;19.13;17.13;;;16.80;99.90;;;;;;2616523;54;20421;-77
2022/08/19 01:33:35;;;;;;;20.40;16.67;;;16.80;99.90;;;;;;2616465;54;20492;-77
2022/08/19 01:39:25;;;;;;;18.23;16.43;;;16.80;99.90;;;;;;2616249;54;20397;-80
2022/08/19 01:45:13;;;;;;;17.60;16.20;;;16.80;99.90;;;;;;2616129;54;20513;-77
2022/08/19 01:51:00;;;;;;;19.13;17.30;;;16.60;99.90;;;;;;2616168;54;20432;-78
2022/08/19 01:56:48;;;;;;;17.10;15.40;;;16.50;99.90;;;;;;2616076;54;20141;-78
2022/08/19 02:02:36;;;;;;;18.30;16.80;;;16.50;99.90;;;;;;2616829;39;20751;-77
2022/08/19 02:08:24;;;;;;;19.17;17.40;;;16.50;99.90;;;;;;2616504;54;20124;-77
2022/08/19 02:14:15;;;;;;;20.57;17.23;;;16.60;99.90;;;;;;2616300;54;20524;-77
2022/08/19 02:20:04;;;;;;;19.37;17.70;;;16.50;99.90;;;;;;2616597;54;20150;-77
2022/08/19 02:25:52;;;;;;;19.40;17.50;;;16.30;99.90;;;;;;2616409;54;20408;-76
2022/08/19 02:31:41;;;;;;;17.87;16.20;;;16.30;99.90;;;;;;2616314;54;20128;-77
2022/08/19 02:43:36;;;;;;;20.40;18.70;;;16.40;99.90;;;;;;2616484;54;20389;-76
2022/08/19 02:49:24;;;;;;;18.50;16.67;;;16.40;99.90;;;;;;2617886;54;20395;-80
2022/08/19 02:55:12;;;;;;;19.03;17.37;;;16.40;99.90;;;;;;2618076;54;20189;-80
2022/08/19 03:01:00;;;;;;;22.60;20.40;;;16.50;99.90;;;;;;2617623;54;20142;-85
2022/08/19 03:06:48;;;;;;;19.63;17.60;;;16.40;99.90;;;;;;2616915;54;20188;-85
2022/08/19 03:16:05;;;;;;;20.87;18.90;;;16.30;99.90;;;;;;2616942;54;20392;-83
2022/08/19 03:21:53;;;;;;;21.07;18.90;;;16.20;99.90;;;;;;2617529;54;20927;-85
2022/08/19 03:27:41;;;;;;;20.33;18.60;;;16.20;99.90;;;;;;2617671;54;20356;-84
2022/08/19 03:33:30;;;;;;;21.40;19.40;;;16.40;99.90;;;;;;2617466;54;20634;-84
2022/08/19 03:39:18;;;;;;;21.93;19.80;;;16.40;99.90;;;;;;2617070;54;20383;-84
2022/08/19 03:45:07;;;;;;;20.87;18.87;;;16.40;99.90;;;;;;2617211;54;20124;-84
2022/08/19 03:50:54;;;;;;;19.50;17.63;;;16.10;99.90;;;;;;2617435;54;20377;-80
2022/08/19 03:56:45;;;;;;;21.20;19.30;;;16.10;99.90;;;;;;2617432;31;20571;-85
2022/08/19 04:02:32;;;;;;;19.13;17.10;;;16.10;99.90;;;;;;2617278;54;20549;-85
2022/08/19 04:08:20;;;;;;;20.50;18.23;;;16.40;99.90;;;;;;2617304;54;20166;-77
2022/08/19 04:11:32;;;;;;;20.90;18.90;;;16.30;99.90;;;;;;2616198;47;20481;-78
2022/08/19 04:13:59;;;;;;;22.10;20.00;;;16.30;99.90;;;;;;2616851;54;20435;-78
2022/08/19 04:19:46;;;;;;;21.83;19.53;;;16.20;99.90;;;;;;2616861;54;20383;-78
2022/08/19 04:25:40;;;;;;;25.37;22.80;;;16.10;99.90;;;;;;2616574;54;20709;-80
2022/08/19 04:31:30;;;;;;;23.53;21.00;;;16.30;99.90;;;;;;2616915;54;20384;-77
2022/08/19 04:37:18;;;;;;;25.13;22.13;;;16.30;99.90;;;;;;2616663;54;20403;-78
2022/08/19 04:43:05;;;;;;;21.33;19.20;;;16.60;99.90;;;;;;2616591;54;20115;-78
2022/08/19 04:48:53;;;;;;;23.90;21.57;;;16.70;99.90;;;;;;2616953;54;20221;-77
2022/08/19 04:54:41;;;;;;;29.17;26.20;;;16.80;99.90;;;;;;2616637;54;20132;-78
2022/08/19 05:00:29;;;;;;;30.93;28.03;;;17.20;99.90;;;;;;2616596;54;20136;-78
2022/08/19 05:06:19;;;;;;;26.13;20.33;;;17.20;99.90;;;;;;2617098;39;20516;-79
2022/08/19 05:16:03;;;;;;;20.47;18.43;;;17.20;99.90;;;;;;2616434;54;20399;-77
2022/08/19 05:27:58;;;;;;;22.57;20.40;;;17.50;99.90;;;;;;2616771;54;20969;-79
2022/08/19 05:33:47;;;;;;;22.70;20.03;;;18.00;99.90;;;;;;2616425;54;20566;-77
2022/08/19 05:39:37;;;;;;;21.23;19.03;;;18.90;99.90;;;;;;2616858;54;20373;-78
2022/08/19 05:45:25;;;;;;;20.13;18.03;;;19.50;99.90;;;;;;2617146;39;20818;-78
2022/08/19 05:51:13;;;;;;;19.67;17.77;;;20.00;99.90;;;;;;2617090;39;20791;-77
2022/08/19 05:57:02;;;;;;;22.83;20.33;;;19.70;99.90;;;;;;2616239;54;20621;-78
2022/08/19 06:02:50;;;;;;;26.83;19.73;;;19.60;99.90;;;;;;2616667;54;20423;-78
2022/08/19 06:08:38;;;;;;;23.40;21.07;;;20.00;99.90;;;;;;2616159;54;20427;-77
2022/08/19 06:11:32;;;;;;;24.77;18.57;;;20.50;99.90;;;;;;2616332;54;20437;-77
2022/08/19 06:14:02;;;;;;;22.83;20.33;;;20.20;99.90;;;;;;2616123;54;20450;-77
2022/08/19 06:19:50;;;;;;;23.40;21.07;;;20.80;99.90;;;;;;2616226;54;20381;-77
2022/08/19 06:25:39;;;;;;;22.30;20.10;;;20.90;99.90;;;;;;2616487;54;20124;-77
2022/08/19 06:31:28;;;;;;;22.70;20.47;;;21.70;99.90;;;;;;2616604;54;20425;-78
2022/08/19 06:37:16;;;;;;;22.20;20.10;;;21.90;99.90;;;;;;2616448;54;20394;-79
2022/08/19 06:43:04;;;;;;;27.27;22.63;;;21.40;99.90;;;;;;2616531;54;20659;-78
2022/08/19 06:48:53;;;;;;;26.80;24.03;;;21.90;99.90;;;;;;2616050;54;20146;-78
2022/08/19 06:54:42;;;;;;;28.10;24.17;;;21.20;99.90;;;;;;2616072;54;20474;-77
2022/08/19 07:00:29;;;;;;;29.63;26.50;;;21.00;99.90;;;;;;2616227;54;21080;-77
2022/08/19 07:06:19;;;;;;;27.67;24.77;;;21.00;99.90;;;;;;2615747;54;20634;-79
2022/08/19 07:16:06;;;;;;;37.60;24.90;;;21.10;99.90;;;;;;2615956;54;20376;-77
2022/08/19 07:21:55;;;;;;;31.23;26.53;;;21.90;99.90;;;;;;2514489;54;20437;-77
2022/08/19 07:27:44;;;;;;;27.17;24.37;;;21.90;99.90;;;;;;2616150;54;20484;-78
2022/08/19 07:33:32;;;;;;;26.33;22.93;;;22.40;99.90;;;;;;2616130;54;20948;-79
2022/08/19 07:39:27;;;;;;;26.73;24.10;;;22.60;99.90;;;;;;2615995;54;20382;-78
2022/08/19 07:45:16;;;;;;;26.90;24.03;;;22.70;99.90;;;;;;2616423;39;20766;-78
2022/08/19 07:51:07;;;;;;;27.17;24.77;;;23.10;99.90;;;;;;2616041;54;20360;-78
2022/08/19 07:56:56;;;;;;;27.40;24.60;;;22.80;99.90;;;;;;2615886;54;20406;-79
2022/08/19 08:02:44;;;;;;;32.20;28.90;;;22.90;99.90;;;;;;2615800;54;20403;-76
2022/08/19 08:11:32;;;;;;;32.67;29.37;;;22.30;99.90;;;;;;2632897;36;21033;-76
2022/08/19 08:13:58;;;;;;;30.90;26.00;;;22.70;99.90;;;;;;2615620;54;20446;-76
2022/08/19 08:19:47;;;;;;;36.87;32.87;;;22.20;99.90;;;;;;2615603;54;20142;-76
2022/08/19 08:25:37;;;;;;;34.80;31.30;;;22.40;99.90;;;;;;2615521;54;20386;-76
2022/08/19 08:31:24;;;;;;;39.87;33.83;;;23.20;99.90;;;;;;2615691;54;20383;-76
2022/08/19 08:37:12;;;;;;;40.20;36.33;;;23.30;99.90;;;;;;2615595;54;20569;-76
2022/08/19 08:43:04;;;;;;;37.33;33.70;;;24.50;99.90;;;;;;2615784;54;20119;-76
2022/08/19 08:48:57;;;;;;;38.97;34.83;;;23.70;99.90;;;;;;2615657;54;20431;-76
2022/08/19 08:54:48;;;;;;;40.57;36.47;;;24.70;99.90;;;;;;2616096;54;21221;-76
2022/08/19 09:00:40;;;;;;;41.40;37.47;;;24.90;99.90;;;;;;2616538;54;20410;-77
2022/08/19 09:16:23;;;;;;;40.17;36.37;;;24.70;99.90;;;;;;2616003;54;20396;-77
2022/08/19 09:22:11;;;;;;;40.10;36.50;;;25.80;99.90;;;;;;2616396;54;20392;-77
2022/08/19 09:28:02;;;;;;;38.50;34.70;;;25.80;96.40;;;;;;2616478;54;20648;-77
2022/08/19 09:33:51;;;;;;;37.13;33.80;;;25.50;94.30;;;;;;2616401;54;20434;-77
2022/08/19 09:39:43;;;;;;;32.17;28.97;;;25.10;94.30;;;;;;2616040;54;21018;-76
2022/08/19 09:45:32;;;;;;;29.37;26.43;;;24.10;99.50;;;;;;2616192;54;20467;-77
2022/08/19 09:51:26;;;;;;;27.93;24.67;;;24.10;99.50;;;;;;2616333;54;20928;-78
2022/08/19 09:57:16;;;;;;;28.80;26.17;;;24.60;99.90;;;;;;2616407;54;20407;-77
2022/08/19 10:03:04;;;;;;;24.03;21.73;;;25.40;80.80;;;;;;2616637;54;20415;-77
2022/08/19 10:08:52;;;;;;;21.90;17.67;;;25.90;60.50;;;;;;2616318;54;20128;-78
2022/08/19 10:18:02;;;;;;;22.90;20.83;;;25.60;50.90;;;;;;2616226;54;20423;-77
2022/08/19 10:23:54;;;;;;;20.53;18.83;;;25.70;49.60;;;;;;2615788;54;20134;-77
2022/08/19 10:29:42;;;;;;;25.80;23.67;;;26.50;48.50;;;;;;2616131;54;20407;-77
2022/08/19 10:35:29;;;;;;;24.43;22.53;;;26.70;42.20;;;;;;2616062;54;20196;-77
2022/08/19 10:41:22;;;;;;;25.10;23.20;;;26.00;48.90;;;;;;2616058;54;20219;-77
2022/08/19 10:47:11;;;;;;;24.17;22.10;;;27.30;42.50;;;;;;2616751;39;20801;-77
2022/08/19 10:53:04;;;;;;;25.07;23.10;;;26.60;38.20;;;;;;2616069;54;20413;-76
2022/08/19 10:58:52;;;;;;;28.70;25.87;;;25.20;48.00;;;;;;2616238;54;20863;-77
2022/08/19 11:04:40;;;;;;;29.17;26.57;;;25.90;47.80;;;;;;2616265;39;20277;-77
2022/08/19 11:10:27;;;;;;;28.57;25.47;;;26.70;42.30;;;;;;2616034;54;20427;-78
2022/08/19 11:13:33;;;;;;;26.00;23.70;;;26.10;43.40;;;;;;2615572;54;20411;-77
2022/08/19 11:16:07;;;;;;;24.97;22.80;;;25.90;46.80;;;;;;2615179;47;20193;-77
2022/08/19 11:21:55;;;;;;;26.93;24.73;;;26.40;39.70;;;;;;2616169;54;20393;-79
2022/08/19 11:27:44;;;;;;;25.70;23.60;;;26.50;39.40;;;;;;2615996;54;20168;-78
2022/08/19 11:33:32;;;;;;;24.27;22.10;;;26.10;37.80;;;;;;2615891;54;20399;-78
2022/08/19 11:39:22;;;;;;;25.17;22.97;;;27.30;29.40;;;;;;2616045;54;20975;-77
2022/08/19 11:45:10;;;;;;;23.73;21.87;;;27.20;28.00;;;;;;2615811;54;20431;-77
2022/08/19 11:50:58;;;;;;;24.37;21.37;;;27.40;21.80;;;;;;2615669;54;20401;-77
2022/08/19 11:56:47;;;;;;;19.53;18.03;;;27.50;19.80;;;;;;2615807;54;20159;-77
2022/08/19 12:02:35;;;;;;;21.37;19.77;;;26.70;24.50;;;;;;2615883;54;20381;-77
2022/08/19 12:08:23;;;;;;;21.03;19.10;;;25.90;23.40;;;;;;2615941;54;20376;-77
2022/08/19 12:18:08;;;;;;;16.70;15.43;;;26.80;19.50;;;;;;2615636;54;20383;-77
2022/08/19 12:23:58;;;;;;;14.33;13.23;;;27.10;17.70;;;;;;2616041;54;20653;-79
2022/08/19 12:29:46;;;;;;;13.90;12.90;;;27.50;15.80;;;;;;2616805;39;20762;-78
2022/08/19 12:35:34;;;;;;;12.63;11.83;;;28.20;12.60;;;;;;2616384;54;20129;-78
2022/08/19 12:41:22;;;;;;;12.83;11.90;;;28.40;10.00;;;;;;2616691;54;20144;-77
2022/08/19 12:47:11;;;;;;;13.20;12.10;;;28.90;8.80;;;;;;2616841;39;20571;-76
2022/08/19 12:52:59;;;;;;;14.30;12.90;;;27.70;11.30;;;;;;2617024;39;20725;-77
2022/08/19 12:58:49;;;;;;;12.47;11.60;;;28.30;12.00;;;;;;2616506;54;20129;-77
2022/08/19 13:04:40;;;;;;;13.50;12.60;;;28.80;6.60;;;;;;2616391;54;20515;-77
2022/08/19 13:10:34;;;;;;;13.50;12.60;;;28.80;6.50;;;;;;2616347;54;20618;-78
2022/08/19 13:13:34;;;;;;;13.80;12.20;;;29.00;6.20;;;;;;2616375;54;20436;-78
2022/08/19 13:16:02;;;;;;;12.47;11.67;;;29.00;5.90;;;;;;2615653;54;20454;-78
2022/08/19 13:21:51;;;;;;;12.23;11.40;;;28.80;6.60;;;;;;2616295;54;20417;-77
2022/08/19 13:27:40;;;;;;;13.33;12.33;;;28.30;5.80;;;;;;2616408;54;20360;-77
2022/08/19 13:33:29;;;;;;;11.10;10.10;;;28.80;4.50;;;;;;2616423;54;20966;-78
2022/08/19 13:39:16;;;;;;;13.00;11.80;;;29.10;4.10;;;;;;2616104;46;20499;-77
2022/08/19 13:45:06;;;;;;;11.93;11.03;;;28.80;4.50;;;;;;2617195;39;20507;-77
2022/08/19 13:50:54;;;;;;;13.43;12.33;;;28.00;7.00;;;;;;2616924;39;20812;-78
2022/08/19 13:56:45;;;;;;;11.97;11.03;;;28.20;5.80;;;;;;2616448;54;20377;-78
2022/08/19 14:02:33;;;;;;;11.83;11.03;;;29.00;5.80;;;;;;2616393;54;20954;-77
2022/08/19 14:08:21;;;;;;;9.67;8.87;;;28.50;3.10;;;;;;2616992;39;20764;-77
2022/08/19 14:18:07;;;;;;;11.80;10.80;;;27.20;6.20;;;;;;2616877;39;20891;-77
2022/08/19 14:23:54;;;;;;;11.57;10.57;;;27.10;6.70;;;;;;2616483;54;20359;-78
2022/08/19 14:29:42;;;;;;;12.47;9.60;;;28.40;4.20;;;;;;2616643;54;20120;-78
2022/08/19 14:35:35;;;;;;;11.40;10.40;;;28.10;3.80;;;;;;2616105;54;20119;-77
2022/08/19 14:41:23;;;;;;;12.17;11.20;;;28.80;3.90;;;;;;2616153;54;20401;-77
2022/08/19 14:47:11;;;;;;;12.27;11.20;;;29.10;3.30;;;;;;2616325;54;20394;-78
2022/08/19 14:53:03;;;;;;;11.70;10.70;;;27.50;3.60;;;;;;2616367;54;21034;-77
2022/08/19 14:58:51;;;;;;;10.87;10.03;;;29.10;1.30;;;;;;2616399;54;20393;-77
2022/08/19 15:04:39;;;;;;;11.80;10.90;;;28.00;3.90;;;;;;2616136;54;20489;-78
2022/08/19 15:10:27;;;;;;;12.10;11.20;;;28.50;3.20;;;;;;2616469;54;20230;-78
2022/08/19 15:13:31;;;;;;;12.60;11.40;;;29.00;1.70;;;;;;2615408;46;20426;-78
2022/08/19 15:15:57;;;;;;;12.70;11.53;;;30.60;1.40;;;;;;2616030;54;20264;-77
2022/08/19 15:21:44;;;;;;;12.67;11.67;;;28.00;2.40;;;;;;2616690;54;20143;-77
2022/08/19 15:27:32;;;;;;;12.30;11.37;;;29.90;1.00;;;;;;2616148;54;20129;-78
2022/08/19 15:33:20;;;;;;;14.07;13.03;;;27.70;3.70;;;;;;2616502;54;20118;-78
2022/08/19 15:39:09;;;;;;;18.87;13.67;;;28.50;4.90;;;;;;2616288;54;21228;-78
2022/08/19 15:44:57;;;;;;;13.27;12.10;;;29.20;1.00;;;;;;2615767;54;20416;-78
2022/08/19 15:50:45;;;;;;;14.23;12.80;;;27.80;4.70;;;;;;2616365;54;20946;-77
2022/08/19 16:08:49;;;;;;;11.77;10.87;;;29.40;1.00;;;;;;2616122;54;20510;-77
2022/08/19 16:18:02;;;;;;;8.73;8.13;;;28.70;1.00;;;;;;2615938;54;20570;-76
2022/08/19 16:23:50;;;;;;;11.63;10.73;;;28.20;1.00;;;;;;2616228;46;20414;-78
2022/08/19 16:29:38;;;;;;;11.10;10.30;;;30.10;1.00;;;;;;2616369;54;20407;-78
2022/08/19 16:35:26;;;;;;;13.80;12.60;;;29.60;1.00;;;;;;2615946;54;20131;-78
2022/08/19 16:41:14;;;;;;;11.97;10.97;;;29.70;1.00;;;;;;2616035;54;20245;-78
2022/08/19 16:47:01;;;;;;;13.17;12.20;;;28.00;1.00;;;;;;2616396;39;20730;-78
2022/08/19 16:52:49;;;;;;;14.80;13.40;;;26.70;3.20;;;;;;2615982;54;20143;-78
2022/08/19 16:58:37;;;;;;;14.27;13.17;;;26.30;5.40;;;;;;2616415;39;20530;-77
2022/08/19 17:04:24;;;;;;;13.90;12.80;;;25.90;7.30;;;;;;2616216;39;20786;-76
2022/08/19 17:10:12;;;;;;;14.27;12.97;;;25.80;8.90;;;;;;2615801;54;20163;-77
2022/08/19 17:13:34;;;;;;;15.47;14.23;;;25.60;9.60;;;;;;2615729;54;20955;-76
2022/08/19 17:16:00;;;;;;;16.67;15.10;;;25.40;10.60;;;;;;2617027;39;20597;-78
2022/08/19 17:21:48;;;;;;;16.43;15.23;;;25.80;11.10;;;;;;2616629;54;20487;-78
2022/08/19 17:27:36;;;;;;;26.40;16.90;;;25.70;12.40;;;;;;2616447;54;20150;-77
2022/08/19 17:33:24;;;;;;;17.20;15.60;;;25.80;12.40;;;;;;2617342;39;20554;-78
2022/08/19 17:39:14;;;;;;;16.63;14.57;;;25.80;12.20;;;;;;2616495;54;20423;-77
2022/08/19 17:45:02;;;;;;;16.47;14.97;;;25.80;12.20;;;;;;2616366;54;20928;-77
2022/08/19 17:50:51;;;;;;;17.90;16.10;;;25.80;13.60;;;;;;2616474;54;20964;-77
2022/08/19 17:56:39;;;;;;;18.13;15.27;;;25.70;13.50;;;;;;2616348;54;20422;-78
2022/08/19 18:02:27;;;;;;;19.10;17.20;;;25.50;14.10;;;;;;2616465;54;20352;-77
2022/08/19 18:08:16;;;;;;;16.73;15.30;;;25.30;15.20;;;;;;2616612;54;20186;-77
2022/08/19 18:18:08;;;;;;;14.73;13.33;;;24.90;17.70;;;;;;2616441;54;20425;-77
2022/08/19 18:23:56;;;;;;;15.00;13.80;;;24.60;19.50;;;;;;2616134;54;20456;-78
2022/08/19 18:29:44;;;;;;;12.90;11.67;;;24.50;18.80;;;;;;2616729;54;20363;-77
2022/08/19 18:35:32;;;;;;;12.37;11.20;;;24.30;20.20;;;;;;2616202;54;20120;-77
2022/08/19 18:53:36;;;;;;;14.10;12.77;;;23.70;28.80;;;;;;2616199;54;20371;-77
2022/08/19 18:59:27;;;;;;;17.33;14.87;;;23.60;37.80;;;;;;2616261;54;20420;-78
2022/08/19 19:05:15;;;;;;;17.17;15.67;;;23.70;50.80;;;;;;2616274;54;20477;-75
2022/08/19 19:11:04;;;;;;;17.13;15.57;;;23.50;62.90;;;;;;2616183;54;20739;-75
2022/08/19 19:13:33;;;;;;;18.80;15.83;;;23.40;72.00;;;;;;2615695;54;20446;-77
2022/08/19 19:16:00;;;;;;;19.03;17.13;;;23.40;79.00;;;;;;2616086;39;20960;-77
2022/08/19 19:21:48;;;;;;;18.50;15.30;;;23.40;86.20;;;;;;2616017;54;20468;-77
2022/08/19 19:27:39;;;;;;;19.23;17.23;;;23.30;92.20;;;;;;2616060;54;20415;-77
2022/08/19 19:33:27;;;;;;;16.30;14.67;;;23.20;96.20;;;;;;2615829;54;20382;-77
2022/08/19 19:39:15;;;;;;;17.63;15.73;;;22.90;99.90;;;;;;2616166;54;20411;-77
2022/08/19 19:45:03;;;;;;;17.00;13.57;;;22.70;99.90;;;;;;2615788;54;20362;-77
2022/08/19 19:50:51;;;;;;;13.80;12.50;;;22.60;99.90;;;;;;2615998;54;20391;-76
2022/08/19 19:56:42;;;;;;;15.20;13.60;;;22.40;99.90;;;;;;2615662;54;20257;-78
2022/08/19 20:02:29;;;;;;;13.57;12.30;;;22.20;99.90;;;;;;2616033;54;20380;-76
2022/08/19 20:18:06;;;;;;;10.10;9.20;;;21.90;99.90;;;;;;2616299;39;20817;-80
2022/08/19 20:23:55;;;;;;;8.97;7.67;;;21.90;99.90;;;;;;2615925;54;20923;-75
2022/08/19 20:29:43;;;;;;;9.20;8.40;;;21.80;99.90;;;;;;2615945;54;20931;-77
2022/08/19 20:35:31;;;;;;;9.60;8.70;;;21.70;99.90;;;;;;2616162;39;20642;-76
2022/08/19 20:41:20;;;;;;;7.90;7.20;;;21.60;99.90;;;;;;2615806;54;20413;-76
2022/08/19 20:47:08;;;;;;;9.23;8.43;;;21.30;99.90;;;;;;2615825;54;20432;-76
2022/08/19 20:52:56;;;;;;;9.77;8.53;;;21.30;99.90;;;;;;2616360;54;20158;-77
2022/08/19 20:58:43;;;;;;;8.57;7.90;;;21.20;99.90;;;;;;2616817;54;20122;-77
2022/08/19 21:04:31;;;;;;;8.47;7.63;;;21.10;99.90;;;;;;2616792;54;20126;-77
2022/08/19 21:10:19;;;;;;;8.50;7.80;;;21.00;99.90;;;;;;2616630;54;20251;-78
2022/08/19 21:16:19;;;;;;;9.67;8.77;;;21.00;99.90;;;;;;2614873;54;20428;-77
2022/08/19 21:22:06;;;;;;;9.23;8.53;;;21.10;99.90;;;;;;2615132;54;20161;-77
2022/08/19 21:27:53;;;;;;;10.70;9.60;;;21.10;99.90;;;;;;2615093;54;20119;-76
2022/08/19 21:33:41;;;;;;;8.90;8.00;;;21.20;99.90;;;;;;2614953;54;20238;-75
2022/08/19 21:39:28;;;;;;;9.20;8.40;;;21.30;99.90;;;;;;2615017;54;21065;-76
2022/08/19 21:45:19;;;;;;;10.20;9.13;;;21.30;99.90;;;;;;2614971;54;20455;-78
2022/08/19 21:51:08;;;;;;;11.17;10.17;;;21.40;99.90;;;;;;2615032;54;20487;-76
2022/08/19 21:56:56;;;;;;;11.33;10.23;;;21.60;99.90;;;;;;2616281;54;20158;-76
2022/08/19 22:02:45;;;;;;;13.07;11.83;;;21.60;99.90;;;;;;2616335;54;20216;-75
2022/08/19 22:08:32;;;;;;;12.93;11.83;;;21.60;99.90;;;;;;2616605;39;20762;-76
2022/08/19 22:18:07;;;;;;;12.43;11.23;;;21.60;99.90;;;;;;2616626;39;20873;-76
2022/08/19 22:23:55;;;;;;;12.10;11.00;;;21.60;99.90;;;;;;2615950;54;20392;-76
2022/08/19 22:29:43;;;;;;;13.83;12.53;;;21.50;99.90;;;;;;2616501;54;20162;-76
2022/08/19 22:35:34;;;;;;;15.40;13.87;;;21.60;99.90;;;;;;2616191;54;20118;-75
2022/08/19 22:41:22;;;;;;;19.00;14.40;;;21.50;99.90;;;;;;2616424;46;20409;-76
2022/08/19 22:47:09;;;;;;;25.10;20.93;;;21.10;99.90;;;;;;2616430;46;20148;-77
2022/08/19 22:52:59;;;;;;;29.93;23.50;;;20.50;99.90;;;;;;2616557;39;20525;-77
2022/08/19 22:58:49;;;;;;;25.33;22.70;;;20.40;99.90;;;;;;2616463;54;20433;-77
2022/08/19 23:04:37;;;;;;;24.87;22.27;;;20.30;99.90;;;;;;2616421;39;21025;-77
2022/08/19 23:10:27;;;;;;;29.60;19.80;;;20.00;99.90;;;;;;2616216;54;20354;-76
2022/08/19 23:13:37;;;;;;;27.87;19.40;;;19.70;99.90;;;;;;2615678;47;20505;-78
2022/08/19 23:16:04;;;;;;;27.23;19.00;;;19.70;99.90;;;;;;2615618;47;20418;-77
2022/08/19 23:21:52;;;;;;;26.37;19.63;;;19.50;99.90;;;;;;2616425;54;20414;-78
2022/08/19 23:33:49;;;;;;;34.40;20.67;;;19.70;99.90;;;;;;2616306;54;20391;-76
2022/08/19 23:39:37;;;;;;;34.03;22.77;;;19.80;99.90;;;;;;2616414;54;20438;-78
2022/08/19 23:45:26;;;;;;;36.77;23.00;;;19.80;99.90;;;;;;2617176;31;20784;-78
2022/08/19 23:51:16;;;;;;;37.97;25.00;;;19.90;99.90;;;;;;2616413;54;20482;-76
2022/08/19 23:57:04;;;;;;;36.93;24.43;;;19.80;99.90;;;;;;2616594;54;20362;-76
